createdAt,value
2023-02-09T00:00:11.912Z,102642.97
2023-02-09T00:02:39.029Z,102643.09
2023-02-09T00:05:05.864Z,102631.59
2023-02-09T00:07:32.277Z,102644.41
2023-02-09T00:09:58.839Z,102643.66
2023-02-09T00:12:43.751Z,102641.16
2023-02-09T00:15:10.226Z,102636.88
2023-02-09T00:17:37.180Z,102637.84
2023-02-09T00:20:05.668Z,102640.75
2023-02-09T00:22:32.457Z,102642.00
2023-02-09T00:24:58.907Z,102641.31
2023-02-09T00:27:25.940Z,102642.34
2023-02-09T00:29:52.328Z,102638.03
2023-02-09T00:32:18.789Z,102644.50
2023-02-09T00:34:45.195Z,102645.53
2023-02-09T00:37:11.635Z,102642.06
2023-02-09T00:39:38.064Z,102643.22
2023-02-09T00:42:07.213Z,102650.50
2023-02-09T00:44:40.065Z,102651.69
2023-02-09T00:47:07.854Z,102650.13
2023-02-09T00:49:34.370Z,102648.47
2023-02-09T00:52:00.774Z,102636.03
2023-02-09T00:54:27.231Z,102645.25
2023-02-09T00:56:53.775Z,102637.34
2023-02-09T00:59:20.212Z,102636.56
2023-02-09T01:01:46.834Z,102631.34
2023-02-09T01:04:13.335Z,102629.63
2023-02-09T01:06:39.760Z,102615.16
2023-02-09T01:09:06.137Z,102624.06
2023-02-09T01:11:32.600Z,102618.66
2023-02-09T01:14:00.683Z,102624.06
2023-02-09T01:16:28.835Z,102620.38
2023-02-09T01:18:56.050Z,102613.13
2023-02-09T01:21:23.247Z,102605.91
2023-02-09T01:23:50.501Z,102608.44
2023-02-09T01:26:17.487Z,102598.63
2023-02-09T01:28:47.617Z,102604.84
2023-02-09T01:31:34.977Z,102608.34
2023-02-09T01:34:03.559Z,102610.59
2023-02-09T01:36:32.350Z,102605.47
2023-02-09T01:39:01.631Z,102602.91
2023-02-09T01:41:28.471Z,102595.97
2023-02-09T01:44:02.630Z,102590.16
2023-02-09T01:46:31.258Z,102589.13
2023-02-09T01:49:09.878Z,102595.56
2023-02-09T01:51:41.745Z,102587.59
2023-02-09T01:54:13.298Z,102587.59
2023-02-09T01:56:44.967Z,102584.75
2023-02-09T01:59:14.156Z,102570.31
2023-02-09T02:01:41.847Z,102574.75
2023-02-09T02:04:08.359Z,102579.00
2023-02-09T02:06:34.813Z,102577.94
2023-02-09T02:09:08.792Z,102578.59
2023-02-09T02:11:36.421Z,102573.88
2023-02-09T02:14:03.287Z,102576.50
2023-02-09T02:17:13.030Z,102580.06
2023-02-09T02:19:42.302Z,102571.28
2023-02-09T02:22:34.438Z,102570.78
2023-02-09T02:25:07.818Z,102577.66
2023-02-09T02:28:00.526Z,102581.69
2023-02-09T02:31:03.730Z,102578.41
2023-02-09T02:33:56.772Z,102572.41
2023-02-09T02:36:49.006Z,102586.09
2023-02-09T02:39:26.574Z,102589.19
2023-02-09T02:42:24.110Z,102590.44
2023-02-09T02:45:06.610Z,102591.69
2023-02-09T02:47:36.549Z,102595.53
2023-02-09T02:50:14.298Z,102596.66
2023-02-09T02:52:46.182Z,102599.63
2023-02-09T02:55:17.044Z,102588.28
2023-02-09T02:57:48.534Z,102593.00
2023-02-09T03:00:35.463Z,102593.34
2023-02-09T03:03:11.111Z,102591.88
2023-02-09T03:05:38.377Z,102592.22
2023-02-09T03:08:05.199Z,102604.28
2023-02-09T03:10:37.509Z,102603.66
2023-02-09T03:13:37.362Z,102602.28
2023-02-09T03:16:16.063Z,102599.00
2023-02-09T03:19:04.431Z,102601.00
2023-02-09T03:21:36.792Z,102607.59
2023-02-09T03:24:32.264Z,102608.94
2023-02-09T03:27:06.963Z,102611.00
2023-02-09T03:29:34.941Z,102613.81
2023-02-09T03:32:01.534Z,102608.31
2023-02-09T03:34:28.534Z,102616.41
2023-02-09T03:36:57.411Z,102617.19
2023-02-09T03:39:23.982Z,102621.59
2023-02-09T03:41:50.347Z,102618.06
2023-02-09T03:44:29.033Z,102626.22
2023-02-09T03:46:58.849Z,102613.69
2023-02-09T03:49:27.612Z,102612.06
2023-02-09T03:51:54.270Z,102616.75
2023-02-09T03:54:21.531Z,102615.19
2023-02-09T03:56:47.977Z,102615.44
2023-02-09T03:59:14.472Z,102614.75
2023-02-09T04:01:40.976Z,102619.63
2023-02-09T04:04:07.488Z,102616.22
2023-02-09T04:06:35.330Z,102615.53
2023-02-09T04:09:03.653Z,102620.13
2023-02-09T04:11:30.652Z,102615.59
2023-02-09T04:13:57.235Z,102619.28
2023-02-09T04:16:24.101Z,102619.34
2023-02-09T04:18:50.756Z,102614.19
2023-02-09T04:21:17.201Z,102608.03
2023-02-09T04:23:43.774Z,102608.91
2023-02-09T04:26:10.268Z,102608.91
2023-02-09T04:28:36.704Z,102616.91
2023-02-09T04:31:03.958Z,102609.94
2023-02-09T04:33:30.641Z,102609.16
2023-02-09T04:35:57.333Z,102609.34
2023-02-09T04:38:24.514Z,102616.63
2023-02-09T04:40:53.218Z,102606.81
2023-02-09T04:43:20.100Z,102607.78
2023-02-09T04:45:46.692Z,102616.63
2023-02-09T04:48:17.495Z,102616.63
2023-02-09T04:50:44.432Z,102614.91
2023-02-09T04:53:11.581Z,102615.03
2023-02-09T04:55:42.960Z,102614.44
2023-02-09T04:58:30.785Z,102616.34
2023-02-09T05:00:57.585Z,102617.38
2023-02-09T05:03:25.889Z,102609.66
2023-02-09T05:05:57.498Z,102616.16
2023-02-09T05:08:24.566Z,102618.91
2023-02-09T05:10:52.172Z,102625.25
2023-02-09T05:13:19.919Z,102619.16
2023-02-09T05:15:46.895Z,102612.06
2023-02-09T05:18:13.801Z,102610.19
2023-02-09T05:20:40.471Z,102607.69
2023-02-09T05:23:06.916Z,102604.97
2023-02-09T05:25:33.316Z,102605.16
2023-02-09T05:27:59.963Z,102604.38
2023-02-09T05:30:29.379Z,102594.72
2023-02-09T05:32:55.871Z,102586.81
2023-02-09T05:35:22.251Z,102585.06
2023-02-09T05:37:48.923Z,102581.50
2023-02-09T05:40:15.745Z,102583.16
2023-02-09T05:42:42.455Z,102589.50
2023-02-09T05:45:09.612Z,102585.06
2023-02-09T05:47:36.510Z,102586.13
2023-02-09T05:50:03.198Z,102587.13
2023-02-09T05:52:29.690Z,102589.91
2023-02-09T05:54:56.073Z,102584.66
2023-02-09T05:57:22.508Z,102581.13
2023-02-09T05:59:48.995Z,102579.38
2023-02-09T06:02:15.599Z,102579.47
2023-02-09T06:04:42.027Z,102585.88
2023-02-09T06:07:09.975Z,102584.94
2023-02-09T06:09:38.041Z,102576.16
2023-02-09T06:12:04.579Z,102580.66
2023-02-09T06:14:30.972Z,102582.56
2023-02-09T06:16:57.358Z,102586.22
2023-02-09T06:19:23.834Z,102591.59
2023-02-09T06:21:50.271Z,102587.06
2023-02-09T06:24:17.167Z,102594.19
2023-02-09T06:26:43.673Z,102587.78
2023-02-09T06:29:10.211Z,102592.22
2023-02-09T06:31:38.144Z,102592.91
2023-02-09T06:34:05.714Z,102586.59
2023-02-09T06:36:32.135Z,102591.09
2023-02-09T06:38:58.580Z,102593.88
2023-02-09T06:41:24.946Z,102593.16
2023-02-09T06:43:51.580Z,102597.75
2023-02-09T06:46:18.169Z,102598.69
2023-02-09T06:48:44.631Z,102587.22
2023-02-09T06:51:13.879Z,102599.75
2023-02-09T06:53:42.671Z,102602.50
2023-02-09T06:56:09.576Z,102608.91
2023-02-09T06:58:37.321Z,102613.25
2023-02-09T07:01:08.985Z,102608.69
2023-02-09T07:03:36.027Z,102619.28
2023-02-09T07:06:12.181Z,102620.16
2023-02-09T07:08:39.407Z,102626.47
2023-02-09T07:11:08.555Z,102628.13
2023-02-09T07:13:35.726Z,102620.06
2023-02-09T07:16:03.945Z,102625.44
2023-02-09T07:18:30.460Z,102626.25
2023-02-09T07:20:59.429Z,102612.63
2023-02-09T07:23:26.068Z,102611.59
2023-02-09T07:25:53.312Z,102616.91
2023-02-09T07:28:20.698Z,102615.97
2023-02-09T07:30:52.141Z,102614.16
2023-02-09T07:33:19.955Z,102608.75
2023-02-09T07:35:47.305Z,102597.19
2023-02-09T07:38:14.346Z,102599.81
2023-02-09T07:40:45.743Z,102605.97
2023-02-09T07:43:13.704Z,102609.38
2023-02-09T07:45:41.589Z,102605.81
2023-02-09T07:48:10.643Z,102609.19
2023-02-09T07:50:37.610Z,102611.81
2023-02-09T07:53:04.012Z,102609.75
2023-02-09T07:55:30.431Z,102618.44
2023-02-09T07:57:56.859Z,102617.25
2023-02-09T08:00:24.318Z,102614.34
2023-02-09T08:02:50.945Z,102622.06
2023-02-09T08:05:22.697Z,102623.53
2023-02-09T08:07:49.187Z,102619.56
2023-02-09T08:10:18.352Z,102603.94
2023-02-09T08:12:59.896Z,102605.34
2023-02-09T08:15:35.749Z,102609.34
2023-02-09T08:18:07.504Z,102605.28
2023-02-09T08:20:34.103Z,102599.38
2023-02-09T08:23:08.868Z,102595.97
2023-02-09T08:25:36.485Z,102600.66
2023-02-09T08:28:04.584Z,102595.44
2023-02-09T08:30:32.663Z,102589.97
2023-02-09T08:32:59.141Z,102599.00
2023-02-09T08:35:26.172Z,102605.41
2023-02-09T08:37:52.532Z,102609.03
2023-02-09T08:40:19.078Z,102631.59
2023-02-09T08:42:45.580Z,102646.22
2023-02-09T08:45:12.042Z,102638.31
2023-02-09T08:47:38.846Z,102627.84
2023-02-09T08:50:05.687Z,102618.94
2023-02-09T08:52:32.160Z,102619.13
2023-02-09T08:54:58.567Z,102609.50
2023-02-09T08:57:38.133Z,102606.97
2023-02-09T09:00:10.200Z,102609.84
2023-02-09T09:02:36.626Z,102596.69
2023-02-09T09:05:03.177Z,102600.63
2023-02-09T09:07:29.620Z,102592.31
2023-02-09T09:09:56.011Z,102586.41
2023-02-09T09:12:22.550Z,102592.25
2023-02-09T09:14:48.925Z,102592.34
2023-02-09T09:17:15.326Z,102592.56
2023-02-09T09:19:41.710Z,102592.06
2023-02-09T09:22:08.110Z,102589.34
2023-02-09T09:24:40.399Z,102594.16
2023-02-09T09:27:10.863Z,102611.72
2023-02-09T09:29:39.972Z,102613.03
2023-02-09T09:32:07.758Z,102613.38
2023-02-09T09:34:34.382Z,102615.25
2023-02-09T09:37:00.783Z,102614.59
2023-02-09T09:39:27.310Z,102635.41
2023-02-09T09:41:59.331Z,102649.47
2023-02-09T09:44:43.190Z,102644.06
2023-02-09T09:47:17.563Z,102634.34
2023-02-09T09:49:44.238Z,102627.00
2023-02-09T09:52:13.290Z,102635.00
2023-02-09T09:54:41.513Z,102640.00
2023-02-09T09:57:24.816Z,102635.34
2023-02-09T09:59:52.724Z,102632.22
2023-02-09T10:02:26.907Z,102631.31
2023-02-09T10:04:56.174Z,102625.44
2023-02-09T10:07:30.829Z,102628.56
2023-02-09T10:10:12.046Z,102627.03
2023-02-09T10:12:44.067Z,102633.94
2023-02-09T10:15:18.356Z,102634.59
2023-02-09T10:17:44.782Z,102640.84
2023-02-09T10:20:11.712Z,102640.31
2023-02-09T10:22:38.204Z,102635.94
2023-02-09T10:25:36.805Z,102636.66
2023-02-09T10:28:06.511Z,102638.53
2023-02-09T10:30:33.239Z,102648.31
2023-02-09T10:33:01.823Z,102652.66
2023-02-09T10:35:35.369Z,102648.28
2023-02-09T10:38:02.755Z,102634.78
2023-02-09T10:40:32.702Z,102628.75
2023-02-09T10:43:05.600Z,102619.44
2023-02-09T10:45:39.763Z,102619.88
2023-02-09T10:48:11.961Z,102616.38
2023-02-09T10:51:00.854Z,102611.75
2023-02-09T10:53:40.546Z,102606.53
2023-02-09T10:56:09.697Z,102609.72
2023-02-09T10:58:37.766Z,102591.56
2023-02-09T11:01:22.649Z,102599.69
2023-02-09T11:04:04.365Z,102590.94
2023-02-09T11:07:01.737Z,102589.19
2023-02-09T11:09:33.228Z,102602.75
2023-02-09T11:12:00.755Z,102602.66
2023-02-09T11:14:28.070Z,102600.19
2023-02-09T11:17:09.675Z,102602.06
2023-02-09T11:20:04.076Z,102587.16
2023-02-09T11:22:53.727Z,102583.16
2023-02-09T11:25:31.256Z,102590.38
2023-02-09T11:28:27.018Z,102598.72
2023-02-09T11:30:59.474Z,102590.53
2023-02-09T11:33:59.842Z,102591.22
2023-02-09T11:37:05.362Z,102577.34
2023-02-09T11:39:44.482Z,102560.66
2023-02-09T11:42:44.473Z,102559.66
2023-02-09T11:45:35.658Z,102544.34
2023-02-09T11:48:31.413Z,102554.91
2023-02-09T11:51:04.363Z,102556.09
2023-02-09T11:53:55.474Z,102553.22
2023-02-09T11:56:26.974Z,102556.38
2023-02-09T11:59:28.796Z,102549.19
2023-02-09T12:02:25.219Z,102539.13
2023-02-09T12:04:58.815Z,102534.28
2023-02-09T12:07:35.201Z,102544.41
2023-02-09T12:10:29.379Z,102534.03
2023-02-09T12:13:26.514Z,102534.38
2023-02-09T12:15:58.292Z,102523.22
2023-02-09T12:18:29.030Z,102517.59
2023-02-09T12:20:58.166Z,102515.63
2023-02-09T12:23:32.677Z,102522.66
2023-02-09T12:26:11.985Z,102517.03
2023-02-09T12:28:43.811Z,102511.78
2023-02-09T12:31:22.713Z,102504.25
2023-02-09T12:33:49.129Z,102510.63
2023-02-09T12:36:16.063Z,102499.47
2023-02-09T12:38:56.578Z,102490.09
2023-02-09T12:41:40.979Z,102481.97
2023-02-09T12:44:10.460Z,102482.69
2023-02-09T12:46:46.576Z,102477.53
2023-02-09T12:49:15.916Z,102485.38
2023-02-09T12:51:53.238Z,102483.25
2023-02-09T12:54:56.649Z,102486.53
2023-02-09T12:57:23.840Z,102498.69
2023-02-09T12:59:50.436Z,102486.16
2023-02-09T13:02:23.992Z,102490.38
2023-02-09T13:04:56.268Z,102473.78
2023-02-09T13:07:44.969Z,102474.00
2023-02-09T13:10:42.525Z,102485.72
2023-02-09T13:13:08.857Z,102498.81
2023-02-09T13:16:05.221Z,102498.84
2023-02-09T13:18:53.468Z,102514.72
2023-02-09T13:21:52.551Z,102497.44
2023-02-09T13:24:32.820Z,102498.84
2023-02-09T13:27:00.793Z,102490.31
2023-02-09T13:29:32.363Z,102505.88
2023-02-09T13:32:11.262Z,102491.75
2023-02-09T13:34:46.601Z,102489.69
2023-02-09T13:37:38.038Z,102475.91
2023-02-09T13:40:14.937Z,102458.94
2023-02-09T13:42:54.961Z,102463.75
2023-02-09T13:45:23.932Z,102461.19
2023-02-09T13:47:51.294Z,102458.28
2023-02-09T13:50:20.039Z,102468.97
2023-02-09T13:52:46.677Z,102462.41
2023-02-09T13:55:17.130Z,102453.34
2023-02-09T13:57:46.292Z,102464.44
2023-02-09T14:00:31.104Z,102472.72
2023-02-09T14:03:03.952Z,102465.38
2023-02-09T14:05:51.757Z,102459.94
2023-02-09T14:08:19.548Z,102475.13
2023-02-09T14:11:16.767Z,102475.47
2023-02-09T14:13:48.439Z,102469.97
2023-02-09T14:16:17.512Z,102461.41
2023-02-09T14:18:57.155Z,102465.19
2023-02-09T14:21:32.268Z,102474.81
2023-02-09T14:23:58.638Z,102485.31
2023-02-09T14:26:33.232Z,102478.88
2023-02-09T14:29:19.420Z,102473.25
2023-02-09T14:31:51.735Z,102464.81
2023-02-09T14:34:38.411Z,102483.03
2023-02-09T14:37:10.681Z,102472.38
2023-02-09T14:40:04.634Z,102474.28
2023-02-09T14:42:33.419Z,102480.44
2023-02-09T14:45:14.889Z,102474.44
2023-02-09T14:47:43.908Z,102481.63
2023-02-09T14:50:23.460Z,102481.78
2023-02-09T14:53:04.231Z,102481.19
2023-02-09T14:55:31.854Z,102487.38
2023-02-09T14:57:58.241Z,102485.63
2023-02-09T15:00:28.202Z,102481.47
2023-02-09T15:02:55.216Z,102495.03
2023-02-09T15:05:23.727Z,102493.66
2023-02-09T15:07:54.398Z,102491.25
2023-02-09T15:10:28.697Z,102487.75
2023-02-09T15:12:56.150Z,102482.38
2023-02-09T15:15:24.045Z,102490.47
2023-02-09T15:17:51.788Z,102482.50
2023-02-09T15:20:21.615Z,102477.44
2023-02-09T15:22:48.045Z,102481.31
2023-02-09T15:25:14.875Z,102479.38
2023-02-09T15:27:52.811Z,102478.16
2023-02-09T15:30:25.320Z,102479.81
2023-02-09T15:32:52.457Z,102480.28
2023-02-09T15:35:22.625Z,102481.16
2023-02-09T15:37:52.264Z,102491.72
2023-02-09T15:40:44.061Z,102489.13
2023-02-09T15:43:33.826Z,102496.41
2023-02-09T15:46:06.449Z,102498.22
2023-02-09T15:48:32.997Z,102503.94
2023-02-09T15:51:00.337Z,102496.03
2023-02-09T15:53:27.374Z,102504.56
2023-02-09T15:55:58.533Z,102502.16
2023-02-09T15:58:35.669Z,102510.28
2023-02-09T16:01:03.060Z,102510.19
2023-02-09T16:03:31.790Z,102508.69
2023-02-09T16:06:19.198Z,102508.22
2023-02-09T16:08:47.170Z,102509.97
2023-02-09T16:11:23.201Z,102506.28
2023-02-09T16:13:50.150Z,102512.66
2023-02-09T16:16:19.707Z,102509.69
2023-02-09T16:18:46.987Z,102515.03
2023-02-09T16:21:26.882Z,102524.63
2023-02-09T16:23:55.750Z,102539.78
2023-02-09T16:26:24.311Z,102534.34
2023-02-09T16:28:51.912Z,102544.31
2023-02-09T16:31:19.247Z,102544.59
2023-02-09T16:33:46.513Z,102546.63
2023-02-09T16:36:16.226Z,102546.91
2023-02-09T16:38:43.078Z,102552.53
2023-02-09T16:41:33.264Z,102558.22
2023-02-09T16:44:01.077Z,102553.31
2023-02-09T16:46:31.472Z,102559.72
2023-02-09T16:49:00.614Z,102566.34
2023-02-09T16:51:27.249Z,102569.41
2023-02-09T16:53:53.833Z,102567.66
2023-02-09T16:56:20.611Z,102571.63
2023-02-09T16:58:48.345Z,102570.44
2023-02-09T17:01:22.534Z,102574.97
2023-02-09T17:03:51.955Z,102582.66
2023-02-09T17:06:21.875Z,102589.03
2023-02-09T17:08:48.753Z,102595.53
2023-02-09T17:11:20.580Z,102592.88
2023-02-09T17:13:47.647Z,102596.38
2023-02-09T17:16:23.382Z,102608.06
2023-02-09T17:18:53.412Z,102603.66
2023-02-09T17:21:23.514Z,102606.28
2023-02-09T17:23:50.485Z,102618.81
2023-02-09T17:26:17.206Z,102613.13
2023-02-09T17:28:44.784Z,102621.06
2023-02-09T17:31:20.154Z,102620.44
2023-02-09T17:33:50.031Z,102618.34
2023-02-09T17:36:26.868Z,102626.16
2023-02-09T17:38:55.630Z,102625.91
2023-02-09T17:41:27.715Z,102638.19
2023-02-09T17:43:56.774Z,102640.28
2023-02-09T17:46:23.364Z,102648.09
2023-02-09T17:48:49.819Z,102642.25
2023-02-09T17:51:30.817Z,102656.25
2023-02-09T17:53:57.662Z,102659.56
2023-02-09T17:56:24.099Z,102664.59
2023-02-09T17:58:50.520Z,102673.25
2023-02-09T18:01:29.042Z,102672.00
2023-02-09T18:03:57.897Z,102680.53
2023-02-09T18:06:39.085Z,102697.44
2023-02-09T18:09:08.025Z,102703.59
2023-02-09T18:11:44.952Z,102697.97
2023-02-09T18:14:16.016Z,102702.41
2023-02-09T18:16:43.723Z,102700.38
2023-02-09T18:19:11.395Z,102707.25
2023-02-09T18:21:38.507Z,102722.19
2023-02-09T18:24:06.296Z,102723.63
2023-02-09T18:26:33.692Z,102722.34
2023-02-09T18:29:00.080Z,102725.50
2023-02-09T18:31:26.499Z,102737.56
2023-02-09T18:33:54.091Z,102734.09
2023-02-09T18:36:20.733Z,102747.91
2023-02-09T18:38:48.147Z,102748.88
2023-02-09T18:41:14.933Z,102746.41
2023-02-09T18:43:41.347Z,102752.38
2023-02-09T18:46:07.955Z,102753.81
2023-02-09T18:48:34.463Z,102758.47
2023-02-09T18:51:00.846Z,102757.00
2023-02-09T18:53:27.291Z,102756.31
2023-02-09T18:55:53.882Z,102765.56
2023-02-09T18:58:20.519Z,102757.63
2023-02-09T19:00:46.989Z,102763.28
2023-02-09T19:03:13.721Z,102767.06
2023-02-09T19:05:40.777Z,102763.59
2023-02-09T19:08:07.471Z,102762.09
2023-02-09T19:10:35.830Z,102768.72
2023-02-09T19:13:03.690Z,102772.59
2023-02-09T19:15:31.879Z,102771.00
2023-02-09T19:17:58.680Z,102777.69
2023-02-09T19:20:27.231Z,102770.66
2023-02-09T19:22:54.808Z,102771.75
2023-02-09T19:25:23.417Z,102782.81
2023-02-09T19:27:49.957Z,102776.84
2023-02-09T19:30:24.613Z,102770.75
2023-02-09T19:32:52.712Z,102789.09
2023-02-09T19:35:22.264Z,102791.06
2023-02-09T19:37:56.938Z,102799.28
2023-02-09T19:40:33.665Z,102795.91
2023-02-09T19:43:00.087Z,102807.84
2023-02-09T19:45:26.544Z,102801.66
2023-02-09T19:47:53.024Z,102800.03
2023-02-09T19:50:19.653Z,102808.25
2023-02-09T19:52:47.506Z,102806.84
2023-02-09T19:55:14.748Z,102815.06
2023-02-09T19:57:42.532Z,102810.72
2023-02-09T20:00:14.527Z,102818.94
2023-02-09T20:02:40.948Z,102820.13
2023-02-09T20:05:07.831Z,102821.13
2023-02-09T20:07:34.378Z,102818.50
2023-02-09T20:10:00.806Z,102827.59
2023-02-09T20:12:27.363Z,102825.19
2023-02-09T20:14:54.467Z,102829.00
2023-02-09T20:17:21.521Z,102830.81
2023-02-09T20:19:47.933Z,102829.94
2023-02-09T20:22:14.304Z,102828.31
2023-02-09T20:24:40.840Z,102829.41
2023-02-09T20:27:07.685Z,102823.41
2023-02-09T20:29:36.823Z,102824.38
2023-02-09T20:32:04.293Z,102827.28
2023-02-09T20:34:30.697Z,102827.50
2023-02-09T20:36:57.578Z,102829.53
2023-02-09T20:39:24.112Z,102833.63
2023-02-09T20:42:31.194Z,102828.28
2023-02-09T20:45:16.264Z,102839.53
2023-02-09T20:47:42.992Z,102834.41
2023-02-09T20:50:09.613Z,102837.34
2023-02-09T20:52:36.044Z,102836.75
2023-02-09T20:55:02.445Z,102835.25
2023-02-09T20:57:31.702Z,102838.13
2023-02-09T20:59:59.980Z,102848.28
2023-02-09T21:02:27.217Z,102857.47
2023-02-09T21:04:55.456Z,102860.38
2023-02-09T21:07:21.855Z,102860.47
2023-02-09T21:09:48.341Z,102857.75
2023-02-09T21:12:14.756Z,102871.31
2023-02-09T21:14:44.963Z,102875.97
2023-02-09T21:17:11.595Z,102869.88
2023-02-09T21:19:38.180Z,102879.22
2023-02-09T21:22:04.973Z,102878.56
2023-02-09T21:24:31.657Z,102870.63
2023-02-09T21:27:00.603Z,102875.28
2023-02-09T21:29:29.110Z,102878.06
2023-02-09T21:31:56.392Z,102877.13
2023-02-09T21:34:23.142Z,102873.53
2023-02-09T21:36:49.593Z,102863.66
2023-02-09T21:39:16.005Z,102861.91
2023-02-09T21:42:00.967Z,102869.19
2023-02-09T21:44:27.406Z,102876.44
2023-02-09T21:46:54.448Z,102880.97
2023-02-09T21:49:20.939Z,102885.44
2023-02-09T21:51:47.422Z,102880.78
2023-02-09T21:54:16.433Z,102880.59
2023-02-09T21:56:43.650Z,102880.38
2023-02-09T21:59:10.416Z,102884.75
2023-02-09T22:01:36.953Z,102881.75
2023-02-09T22:04:04.211Z,102879.63
2023-02-09T22:06:31.468Z,102871.09
2023-02-09T22:09:00.295Z,102869.19
2023-02-09T22:11:26.841Z,102869.84
2023-02-09T22:13:53.234Z,102866.06
2023-02-09T22:16:22.075Z,102871.19
2023-02-09T22:18:48.542Z,102874.59
2023-02-09T22:21:15.196Z,102876.13
2023-02-09T22:23:41.853Z,102871.31
2023-02-09T22:26:08.414Z,102878.06
2023-02-09T22:28:36.688Z,102874.94
2023-02-09T22:31:12.289Z,102875.53
2023-02-09T22:33:39.161Z,102880.53
2023-02-09T22:36:17.253Z,102870.28
2023-02-09T22:38:47.078Z,102870.94
2023-02-09T22:41:22.402Z,102864.34
2023-02-09T22:43:49.926Z,102869.44
2023-02-09T22:46:17.219Z,102870.09
2023-02-09T22:48:49.295Z,102869.94
2023-02-09T22:51:17.675Z,102868.63
2023-02-09T22:53:44.549Z,102868.41
2023-02-09T22:56:12.387Z,102869.09
2023-02-09T22:58:39.334Z,102866.94
2023-02-09T23:01:07.164Z,102864.91
2023-02-09T23:03:34.133Z,102871.06
2023-02-09T23:06:05.815Z,102874.56
2023-02-09T23:08:32.808Z,102874.34
2023-02-09T23:11:03.915Z,102879.56
2023-02-09T23:13:35.143Z,102882.06
2023-02-09T23:16:11.782Z,102879.19
2023-02-09T23:18:38.991Z,102887.09
2023-02-09T23:21:08.096Z,102887.63
2023-02-09T23:23:34.949Z,102876.59
2023-02-09T23:26:01.546Z,102879.09
2023-02-09T23:28:28.268Z,102887.03
2023-02-09T23:30:54.724Z,102893.97
2023-02-09T23:33:21.583Z,102893.31
2023-02-09T23:35:48.414Z,102888.00
2023-02-09T23:38:15.424Z,102888.00
2023-02-09T23:40:41.815Z,102889.94
2023-02-09T23:43:08.300Z,102887.25
2023-02-09T23:45:34.712Z,102885.50
2023-02-09T23:48:01.346Z,102892.66
2023-02-09T23:50:27.849Z,102888.88
2023-02-09T23:52:54.281Z,102895.91
2023-02-09T23:55:20.717Z,102882.03
2023-02-09T23:57:47.203Z,102889.88
